Time;durP1;ratioP1;P1;durP2;ratioP2;P2;SDS_P1;SDS_P2;PMS_P1;PMS_P2;Temp;Humidity;BMP_temperature;BMP_pressure;BME280_temperature;BME280_humidity;BME280_pressure;Samples;Min_cycle;Max_cycle;Signal;HPM_P1;HPM_P2
2021/07/07 00:00:26;;;;;;;;;;;24.00;66.00;;;;;;4999802;28;19971;-67
2021/07/07 00:02:52;;;;;;;;;;;24.10;66.00;;;;;;5020095;28;20303;-69
2021/07/07 00:05:18;;;;;;;;;;;24.00;66.00;;;;;;5020123;28;19917;-69
2021/07/07 00:07:43;;;;;;;;;;;24.10;66.10;;;;;;5019075;28;20358;-69
2021/07/07 00:10:10;;;;;;;;;;;24.10;66.10;;;;;;5016843;28;19924;-68
2021/07/07 00:12:35;;;;;;;;;;;24.00;66.00;;;;;;5016815;28;19917;-68
2021/07/07 00:15:01;;;;;;;;;;;24.00;66.20;;;;;;5020335;28;19924;-69
2021/07/07 00:17:26;;;;;;;;;;;24.00;66.20;;;;;;5020624;28;19979;-68
2021/07/07 00:19:52;;;;;;;;;;;24.00;66.20;;;;;;5018119;28;19921;-69
2021/07/07 00:22:17;;;;;;;;;;;24.10;66.20;;;;;;5001603;28;20015;-69
2021/07/07 00:24:43;;;;;;;;;;;24.10;66.30;;;;;;5014072;28;19941;-68
2021/07/07 00:27:09;;;;;;;;;;;24.00;66.20;;;;;;5016440;28;19921;-70
2021/07/07 00:29:34;;;;;;;;;;;24.00;66.20;;;;;;5019794;28;19925;-69
2021/07/07 00:31:59;;;;;;;;;;;24.00;66.20;;;;;;5014724;28;19916;-68
2021/07/07 00:34:25;;;;;;;;;;;24.00;66.20;;;;;;5016710;28;20614;-69
2021/07/07 00:36:50;;;;;;;;;;;24.00;66.20;;;;;;5008916;28;20078;-68
2021/07/07 00:39:16;;;;;;;;;;;24.00;66.30;;;;;;5010212;28;19926;-69
2021/07/07 00:41:41;;;;;;;;;;;24.00;66.30;;;;;;5010429;28;19925;-68
2021/07/07 00:44:07;;;;;;;;;;;24.00;66.30;;;;;;5011845;28;20459;-68
2021/07/07 00:46:32;;;;;;;;;;;24.00;66.30;;;;;;5017164;28;19917;-69
2021/07/07 00:48:58;;;;;;;;;;;24.00;66.20;;;;;;5016472;28;19922;-68
2021/07/07 00:51:23;;;;;;;;;;;24.00;66.20;;;;;;5015630;28;19921;-68
2021/07/07 00:53:49;;;;;;;;;;;24.00;66.10;;;;;;5020679;28;19917;-69
2021/07/07 00:56:14;;;;;;;;;;;24.00;66.00;;;;;;5014088;28;20019;-68
2021/07/07 00:58:40;;;;;;;;;;;24.00;65.90;;;;;;4990164;28;19924;-69
2021/07/07 01:01:06;;;;;;;;;;;24.00;65.90;;;;;;4997048;28;19918;-69
2021/07/07 01:03:31;;;;;;;;;;;23.90;65.80;;;;;;5013702;28;20399;-68
2021/07/07 01:05:57;;;;;;;;;;;23.90;65.70;;;;;;5020282;28;19924;-69
2021/07/07 01:08:22;;;;;;;;;;;24.00;65.70;;;;;;5015253;28;19921;-68
2021/07/07 01:10:48;;;;;;;;;;;23.90;65.60;;;;;;5000884;28;20300;-68
2021/07/07 01:13:13;;;;;;;;;;;23.90;65.60;;;;;;5018499;28;19918;-68
2021/07/07 01:15:40;;;;;;;;;;;24.00;65.60;;;;;;5007730;28;19917;-69
2021/07/07 01:18:05;;;;;;;;;;;23.90;65.60;;;;;;5015451;28;19917;-66
2021/07/07 01:20:31;;;;;;;;;;;23.90;65.60;;;;;;5003430;28;19918;-68
2021/07/07 01:22:56;;;;;;;;;;;23.90;65.60;;;;;;5020679;28;19924;-68
2021/07/07 01:25:22;;;;;;;;;;;23.90;65.60;;;;;;5016956;28;20304;-67
2021/07/07 01:27:47;;;;;;;;;;;23.90;65.60;;;;;;5016022;28;20352;-69
2021/07/07 01:30:14;;;;;;;;;;;23.90;65.50;;;;;;5012035;28;19917;-68
2021/07/07 01:32:40;;;;;;;;;;;23.90;65.50;;;;;;5005057;28;20312;-68
2021/07/07 01:35:05;;;;;;;;;;;23.90;65.20;;;;;;5006318;28;19917;-68
2021/07/07 01:37:31;;;;;;;;;;;23.90;65.30;;;;;;5009282;28;19952;-68
2021/07/07 01:39:56;;;;;;;;;;;23.90;65.30;;;;;;5013988;28;19921;-69
2021/07/07 01:42:22;;;;;;;;;;;23.90;65.30;;;;;;5008543;28;19917;-68
2021/07/07 01:44:47;;;;;;;;;;;23.80;65.20;;;;;;5005580;28;19949;-68
2021/07/07 01:47:12;;;;;;;;;;;23.90;65.20;;;;;;5007126;28;19921;-68
2021/07/07 01:49:38;;;;;;;;;;;23.90;65.20;;;;;;5008990;28;19921;-68
2021/07/07 01:52:03;;;;;;;;;;;23.90;65.20;;;;;;5011717;28;19975;-68
2021/07/07 01:54:29;;;;;;;;;;;23.80;65.10;;;;;;5014151;28;19928;-68
2021/07/07 01:56:54;;;;;;;;;;;23.80;65.10;;;;;;5012963;28;20377;-69
2021/07/07 01:59:20;;;;;;;;;;;23.90;65.10;;;;;;5005283;28;19921;-68
2021/07/07 02:01:45;;;;;;;;;;;23.90;65.10;;;;;;5011808;28;19924;-68
2021/07/07 02:04:11;;;;;;;;;;;23.80;65.00;;;;;;5014836;28;20434;-69
2021/07/07 02:06:36;;;;;;;;;;;23.90;64.90;;;;;;5007728;28;19926;-68
2021/07/07 02:09:02;;;;;;;;;;;23.80;64.80;;;;;;5012122;28;19921;-68
2021/07/07 02:11:27;;;;;;;;;;;23.80;64.80;;;;;;5008594;28;19917;-69
2021/07/07 02:13:53;;;;;;;;;;;23.80;64.80;;;;;;5007986;28;19918;-69
2021/07/07 02:16:18;;;;;;;;;;;23.80;64.80;;;;;;5010669;28;20015;-68
2021/07/07 02:18:44;;;;;;;;;;;23.80;64.70;;;;;;5007937;28;19925;-68
2021/07/07 02:21:09;;;;;;;;;;;23.80;64.60;;;;;;5016764;28;20276;-67
2021/07/07 02:23:35;;;;;;;;;;;23.80;64.60;;;;;;5008969;28;19929;-68
2021/07/07 02:26:00;;;;;;;;;;;23.80;64.60;;;;;;5015190;28;19993;-68
2021/07/07 02:28:26;;;;;;;;;;;23.80;64.50;;;;;;5014652;28;19925;-68
2021/07/07 02:30:54;;;;;;;;;;;23.80;64.40;;;;;;5019070;28;20442;-68
2021/07/07 02:33:20;;;;;;;;;;;23.80;64.40;;;;;;5017649;28;20354;-68
2021/07/07 02:35:45;;;;;;;;;;;23.80;64.40;;;;;;5022026;28;19918;-68
2021/07/07 02:38:12;;;;;;;;;;;23.80;64.40;;;;;;5021795;28;20318;-69
2021/07/07 02:40:37;;;;;;;;;;;23.70;64.20;;;;;;5001442;28;19967;-69
2021/07/07 02:43:05;;;;;;;;;;;23.80;64.30;;;;;;5024548;28;20004;-68
2021/07/07 02:45:30;;;;;;;;;;;23.70;64.10;;;;;;5015752;28;19921;-69
2021/07/07 02:47:56;;;;;;;;;;;23.80;64.20;;;;;;5014660;28;19971;-68
2021/07/07 02:50:21;;;;;;;;;;;23.80;64.10;;;;;;5013300;28;20749;-68
2021/07/07 02:52:47;;;;;;;;;;;23.80;64.10;;;;;;5015393;28;19921;-68
2021/07/07 02:55:13;;;;;;;;;;;23.70;64.00;;;;;;5020246;28;19924;-68
2021/07/07 02:57:57;;;;;;;;;;;23.70;64.00;;;;;;5016821;28;20021;-68
2021/07/07 03:00:23;;;;;;;;;;;23.70;64.10;;;;;;5020175;28;19917;-69
2021/07/07 03:02:48;;;;;;;;;;;23.70;64.00;;;;;;5017752;28;20379;-68
2021/07/07 03:05:14;;;;;;;;;;;23.70;63.90;;;;;;4998775;28;19917;-68
2021/07/07 03:07:39;;;;;;;;;;;23.70;63.90;;;;;;5015807;28;20323;-68
2021/07/07 03:10:06;;;;;;;;;;;23.70;63.80;;;;;;5022987;28;19967;-69
2021/07/07 03:12:31;;;;;;;;;;;23.70;63.80;;;;;;5021406;28;20000;-67
2021/07/07 03:14:56;;;;;;;;;;;23.70;63.80;;;;;;5020869;28;19921;-66
2021/07/07 03:17:22;;;;;;;;;;;23.70;63.80;;;;;;5019314;28;19945;-68
2021/07/07 03:19:47;;;;;;;;;;;23.70;63.80;;;;;;5022001;28;19975;-68
2021/07/07 03:22:13;;;;;;;;;;;23.70;63.70;;;;;;5019973;28;20398;-69
2021/07/07 03:24:40;;;;;;;;;;;23.60;63.60;;;;;;5010826;28;21513;-68
2021/07/07 03:27:05;;;;;;;;;;;23.70;63.60;;;;;;5015535;28;19922;-69
2021/07/07 03:29:31;;;;;;;;;;;23.60;63.50;;;;;;5015125;28;19917;-67
2021/07/07 03:31:56;;;;;;;;;;;23.60;63.50;;;;;;5009468;28;20461;-69
2021/07/07 03:34:22;;;;;;;;;;;23.60;63.50;;;;;;5013823;28;19949;-69
2021/07/07 03:36:47;;;;;;;;;;;23.70;63.60;;;;;;5016614;28;19924;-68
2021/07/07 03:39:13;;;;;;;;;;;23.60;63.50;;;;;;5022370;28;19917;-68
2021/07/07 03:41:39;;;;;;;;;;;23.60;63.50;;;;;;5017394;28;19921;-68
2021/07/07 03:44:05;;;;;;;;;;;23.70;63.50;;;;;;5011696;28;19940;-68
2021/07/07 03:46:30;;;;;;;;;;;23.60;63.50;;;;;;5010890;28;20372;-69
2021/07/07 03:48:56;;;;;;;;;;;23.60;63.40;;;;;;5017332;28;19927;-68
2021/07/07 03:51:21;;;;;;;;;;;23.60;63.50;;;;;;5019202;28;19958;-69
2021/07/07 03:53:46;;;;;;;;;;;23.60;63.50;;;;;;5020136;28;20327;-68
2021/07/07 03:56:12;;;;;;;;;;;23.60;63.40;;;;;;5009953;28;19924;-69
2021/07/07 03:58:37;;;;;;;;;;;23.60;63.40;;;;;;5018036;28;19953;-69
2021/07/07 04:01:03;;;;;;;;;;;23.60;63.40;;;;;;5013927;28;19936;-68
2021/07/07 04:03:28;;;;;;;;;;;23.60;63.30;;;;;;5025048;28;20007;-68
2021/07/07 04:05:54;;;;;;;;;;;23.60;63.30;;;;;;5018381;28;19924;-68
2021/07/07 04:08:19;;;;;;;;;;;23.60;63.30;;;;;;5012660;28;20340;-67
2021/07/07 04:10:45;;;;;;;;;;;23.60;63.30;;;;;;4997211;28;19917;-67
2021/07/07 04:13:10;;;;;;;;;;;23.50;63.20;;;;;;5017211;28;19921;-68
2021/07/07 04:15:35;;;;;;;;;;;23.60;63.30;;;;;;5021481;28;20412;-67
2021/07/07 04:18:01;;;;;;;;;;;23.60;63.20;;;;;;5018249;28;19918;-66
2021/07/07 04:20:26;;;;;;;;;;;23.60;63.20;;;;;;5018335;28;19924;-67
2021/07/07 04:22:52;;;;;;;;;;;23.60;63.20;;;;;;5018120;28;19929;-69
2021/07/07 04:25:17;;;;;;;;;;;23.50;63.00;;;;;;5000982;28;19918;-68
2021/07/07 04:27:43;;;;;;;;;;;23.60;63.10;;;;;;5014243;28;19921;-67
2021/07/07 04:30:09;;;;;;;;;;;23.60;62.80;;;;;;5019331;28;20042;-69
2021/07/07 04:32:35;;;;;;;;;;;23.60;62.70;;;;;;4999868;28;19948;-67
2021/07/07 04:35:00;;;;;;;;;;;23.60;62.80;;;;;;5015496;28;19980;-69
2021/07/07 04:37:26;;;;;;;;;;;23.60;62.80;;;;;;5019876;28;19932;-69
2021/07/07 04:39:54;;;;;;;;;;;23.60;62.80;;;;;;5012628;28;19932;-68
2021/07/07 04:42:20;;;;;;;;;;;23.60;62.90;;;;;;5014107;28;20073;-66
2021/07/07 04:44:45;;;;;;;;;;;23.60;63.10;;;;;;5017939;28;20395;-70
2021/07/07 04:47:11;;;;;;;;;;;23.60;63.10;;;;;;5020688;28;20333;-66
2021/07/07 04:49:36;;;;;;;;;;;23.60;63.30;;;;;;5017640;28;19922;-67
2021/07/07 04:52:02;;;;;;;;;;;23.60;63.50;;;;;;5010177;28;20345;-67
2021/07/07 04:54:28;;;;;;;;;;;23.60;63.30;;;;;;5009210;28;20635;-69
2021/07/07 04:56:53;;;;;;;;;;;23.60;63.50;;;;;;5024777;28;19966;-68
2021/07/07 04:59:19;;;;;;;;;;;23.60;62.90;;;;;;5016799;28;19921;-69
2021/07/07 05:01:44;;;;;;;;;;;23.60;62.20;;;;;;5015496;28;19918;-69
2021/07/07 05:04:10;;;;;;;;;;;23.60;62.20;;;;;;5012657;28;19917;-70
2021/07/07 05:06:35;;;;;;;;;;;23.50;62.30;;;;;;5011879;28;20354;-68
2021/07/07 05:09:01;;;;;;;;;;;23.40;62.20;;;;;;5014415;28;19968;-69
2021/07/07 05:11:26;;;;;;;;;;;23.50;62.20;;;;;;5014267;28;19917;-72
2021/07/07 05:13:51;;;;;;;;;;;23.40;62.30;;;;;;5022191;28;19917;-69
2021/07/07 05:16:17;;;;;;;;;;;23.40;63.10;;;;;;5021239;28;20341;-70
2021/07/07 05:18:42;;;;;;;;;;;23.40;62.40;;;;;;5011172;28;19917;-69
2021/07/07 05:21:08;;;;;;;;;;;23.40;62.30;;;;;;4991142;28;19933;-69
2021/07/07 05:23:34;;;;;;;;;;;23.40;62.60;;;;;;5013874;28;19921;-70
2021/07/07 05:26:01;;;;;;;;;;;23.50;64.40;;;;;;5023581;28;19913;-70
2021/07/07 05:28:26;;;;;;;;;;;23.50;63.60;;;;;;5023377;28;20344;-71
2021/07/07 05:30:52;;;;;;;;;;;23.50;63.20;;;;;;5023157;28;19925;-68
2021/07/07 05:33:17;;;;;;;;;;;23.50;63.00;;;;;;5024058;28;19913;-69
2021/07/07 05:35:43;;;;;;;;;;;23.50;62.80;;;;;;5024110;28;19921;-66
2021/07/07 05:38:09;;;;;;;;;;;23.50;62.70;;;;;;5024038;28;20676;-66
2021/07/07 05:40:34;;;;;;;;;;;23.50;62.60;;;;;;5023898;28;19956;-69
2021/07/07 05:43:00;;;;;;;;;;;23.50;62.60;;;;;;5023695;28;19957;-64
2021/07/07 05:45:26;;;;;;;;;;;23.50;62.50;;;;;;5023593;28;20453;-68
2021/07/07 05:47:51;;;;;;;;;;;23.50;62.50;;;;;;5022546;28;19922;-65
2021/07/07 05:50:17;;;;;;;;;;;23.60;62.50;;;;;;5025465;28;19967;-69
2021/07/07 05:52:42;;;;;;;;;;;23.60;62.40;;;;;;5023149;28;20346;-66
2021/07/07 05:55:08;;;;;;;;;;;23.50;62.40;;;;;;5006319;28;19917;-67
2021/07/07 05:57:39;;;;;;;;;;;23.50;62.40;;;;;;5025702;28;20481;-65
2021/07/07 06:00:07;;;;;;;;;;;23.50;62.40;;;;;;5013595;28;19917;-70
2021/07/07 06:02:32;;;;;;;;;;;23.50;62.30;;;;;;5036521;28;19919;-69
2021/07/07 06:04:57;;;;;;;;;;;23.50;63.00;;;;;;5016636;28;20335;-68
2021/07/07 06:07:23;;;;;;;;;;;23.50;62.40;;;;;;5012404;28;19964;-71
2021/07/07 06:09:48;;;;;;;;;;;23.50;62.40;;;;;;5007616;28;19920;-68
2021/07/07 06:12:14;;;;;;;;;;;23.50;62.20;;;;;;5033581;28;19913;-71
2021/07/07 06:14:39;;;;;;;;;;;23.50;62.30;;;;;;5008107;28;20511;-68
2021/07/07 06:17:05;;;;;;;;;;;23.50;62.30;;;;;;5019211;28;19920;-69
2021/07/07 06:19:30;;;;;;;;;;;23.50;62.60;;;;;;5024249;28;19924;-66
2021/07/07 06:21:58;;;;;;;;;;;23.50;63.30;;;;;;5019480;28;19929;-71
2021/07/07 06:24:24;;;;;;;;;;;23.50;64.30;;;;;;5000608;28;19913;-71
2021/07/07 06:26:49;;;;;;;;;;;23.50;64.20;;;;;;5000105;28;19932;-67
2021/07/07 06:29:15;;;;;;;;;;;23.50;64.00;;;;;;5006221;28;19917;-68
2021/07/07 06:31:41;;;;;;;;;;;23.50;63.50;;;;;;5025895;28;19944;-67
2021/07/07 06:34:06;;;;;;;;;;;23.50;63.10;;;;;;5009602;28;19913;-68
2021/07/07 06:36:32;;;;;;;;;;;23.40;63.00;;;;;;5008547;28;19995;-68
2021/07/07 06:38:57;;;;;;;;;;;23.40;63.20;;;;;;5010293;28;19917;-69
2021/07/07 06:41:23;;;;;;;;;;;23.30;63.10;;;;;;5024921;28;20402;-69
2021/07/07 06:43:48;;;;;;;;;;;23.30;63.20;;;;;;5011065;28;19965;-68
2021/07/07 06:46:13;;;;;;;;;;;23.20;63.10;;;;;;5033132;28;19913;-69
2021/07/07 06:48:39;;;;;;;;;;;23.20;63.10;;;;;;5030204;28;20441;-68
2021/07/07 06:51:04;;;;;;;;;;;23.10;62.90;;;;;;5016591;28;19921;-66
2021/07/07 06:53:30;;;;;;;;;;;23.20;63.00;;;;;;5014086;28;19924;-67
2021/07/07 06:55:55;;;;;;;;;;;23.10;63.00;;;;;;5006884;28;19918;-68
2021/07/07 06:58:21;;;;;;;;;;;23.10;63.70;;;;;;5009902;28;19913;-68
2021/07/07 07:00:46;;;;;;;;;;;23.10;63.00;;;;;;5006776;28;20455;-69
2021/07/07 07:03:12;;;;;;;;;;;23.10;63.10;;;;;;5011423;28;19917;-68
2021/07/07 07:05:37;;;;;;;;;;;23.10;63.10;;;;;;5003202;28;19913;-68
2021/07/07 07:08:03;;;;;;;;;;;23.10;63.10;;;;;;5004579;28;19925;-68
2021/07/07 07:10:28;;;;;;;;;;;23.10;63.10;;;;;;5010206;28;20404;-67
2021/07/07 07:12:54;;;;;;;;;;;23.00;63.20;;;;;;5012822;28;20008;-68
2021/07/07 07:15:19;;;;;;;;;;;23.10;63.20;;;;;;5016818;28;20446;-68
2021/07/07 07:17:45;;;;;;;;;;;23.00;63.20;;;;;;5013988;28;19917;-67
2021/07/07 07:20:11;;;;;;;;;;;23.10;63.20;;;;;;5016544;28;19987;-68
2021/07/07 07:22:36;;;;;;;;;;;23.00;63.10;;;;;;5030223;28;20000;-68
2021/07/07 07:25:02;;;;;;;;;;;23.00;63.30;;;;;;5011306;28;20000;-68
2021/07/07 07:27:27;;;;;;;;;;;23.00;63.40;;;;;;5022089;28;19924;-68
2021/07/07 07:29:53;;;;;;;;;;;23.00;63.50;;;;;;5029592;28;19913;-68
2021/07/07 07:32:18;;;;;;;;;;;23.00;63.40;;;;;;5023299;28;19913;-69
2021/07/07 07:34:44;;;;;;;;;;;23.00;63.50;;;;;;5035959;28;20337;-68
2021/07/07 07:37:13;;;;;;;;;;;23.10;65.00;;;;;;5035645;28;19935;-70
2021/07/07 07:39:41;;;;;;;;;;;23.10;64.30;;;;;;5024326;28;19917;-69
2021/07/07 07:42:06;;;;;;;;;;;23.20;63.70;;;;;;5036950;28;20288;-67
2021/07/07 07:44:32;;;;;;;;;;;23.20;63.40;;;;;;5040741;28;19920;-71
2021/07/07 07:46:58;;;;;;;;;;;23.20;63.30;;;;;;5040164;28;19979;-69
2021/07/07 07:49:24;;;;;;;;;;;23.30;63.20;;;;;;5030963;28;19917;-70
2021/07/07 07:51:50;;;;;;;;;;;23.30;63.00;;;;;;5029495;28;19913;-71
2021/07/07 07:54:15;;;;;;;;;;;23.30;63.00;;;;;;5026764;28;19920;-69
2021/07/07 07:56:41;;;;;;;;;;;23.30;63.00;;;;;;5036473;28;20299;-70
2021/07/07 07:59:06;;;;;;;;;;;23.30;63.00;;;;;;5033777;28;19921;-67
2021/07/07 08:01:34;;;;;;;;;;;23.30;63.10;;;;;;5034746;28;19913;-70
2021/07/07 08:04:00;;;;;;;;;;;23.20;63.30;;;;;;5036071;28;20712;-68
2021/07/07 08:06:25;;;;;;;;;;;23.20;63.30;;;;;;5038918;28;19913;-69
2021/07/07 08:08:53;;;;;;;;;;;23.30;63.40;;;;;;5034206;28;19975;-70
2021/07/07 08:11:18;;;;;;;;;;;23.30;63.40;;;;;;5032351;28;19919;-70
2021/07/07 08:13:44;;;;;;;;;;;23.30;63.40;;;;;;5025495;28;19939;-69
2021/07/07 08:16:10;;;;;;;;;;;23.30;64.10;;;;;;5030021;28;19964;-69
2021/07/07 08:18:35;;;;;;;;;;;23.30;63.40;;;;;;5033505;28;19966;-69
2021/07/07 08:21:01;;;;;;;;;;;23.40;63.50;;;;;;5024769;28;19965;-71
2021/07/07 08:23:26;;;;;;;;;;;23.30;63.40;;;;;;5030613;28;19974;-71
2021/07/07 08:25:52;;;;;;;;;;;23.30;63.30;;;;;;5018547;28;19914;-71
2021/07/07 08:28:18;;;;;;;;;;;23.40;63.40;;;;;;5031989;28;19940;-71
2021/07/07 08:30:43;;;;;;;;;;;23.30;63.40;;;;;;5031070;28;19936;-70
2021/07/07 08:33:09;;;;;;;;;;;23.40;63.30;;;;;;5036547;28;19913;-69
2021/07/07 08:35:37;;;;;;;;;;;23.40;63.40;;;;;;5029425;28;20359;-70
2021/07/07 08:38:02;;;;;;;;;;;23.30;63.30;;;;;;5033257;28;19999;-69
2021/07/07 08:40:29;;;;;;;;;;;23.30;63.30;;;;;;5033266;28;19996;-70
2021/07/07 08:42:55;;;;;;;;;;;23.40;63.30;;;;;;5024589;28;19913;-71
2021/07/07 08:45:20;;;;;;;;;;;23.40;63.40;;;;;;5033445;28;20308;-70
2021/07/07 08:47:46;;;;;;;;;;;23.30;63.40;;;;;;5034176;28;19921;-71
2021/07/07 08:50:16;;;;;;;;;;;23.30;63.40;;;;;;5035257;28;20277;-70
2021/07/07 08:52:41;;;;;;;;;;;23.30;63.50;;;;;;5035421;28;19913;-70
2021/07/07 08:55:08;;;;;;;;;;;23.30;63.40;;;;;;5012645;28;19913;-69
2021/07/07 08:57:42;;;;;;;;;;;23.30;63.40;;;;;;5032783;28;19971;-69
2021/07/07 09:00:09;;;;;;;;;;;23.40;64.00;;;;;;5040393;28;19945;-70
2021/07/07 09:02:34;;;;;;;;;;;23.30;63.30;;;;;;5035161;28;19917;-69
2021/07/07 09:05:02;;;;;;;;;;;23.30;63.30;;;;;;5011345;28;19913;-70
2021/07/07 09:07:34;;;;;;;;;;;23.30;63.40;;;;;;5040437;28;20303;-69
2021/07/07 09:10:00;;;;;;;;;;;23.40;63.30;;;;;;5031909;28;19942;-69
2021/07/07 09:12:25;;;;;;;;;;;23.40;63.40;;;;;;5032120;28;19912;-69
2021/07/07 09:14:51;;;;;;;;;;;23.30;63.30;;;;;;5023993;28;19913;-69
2021/07/07 09:17:18;;;;;;;;;;;23.30;63.40;;;;;;5020564;28;19916;-69
2021/07/07 09:19:43;;;;;;;;;;;23.30;63.40;;;;;;5035746;28;19916;-70
2021/07/07 09:22:10;;;;;;;;;;;23.40;63.40;;;;;;5039770;28;19929;-70
2021/07/07 09:24:36;;;;;;;;;;;23.30;63.40;;;;;;5039238;28;19934;-69
2021/07/07 09:27:04;;;;;;;;;;;23.30;63.40;;;;;;5035691;28;20392;-69
2021/07/07 09:29:33;;;;;;;;;;;23.30;63.40;;;;;;5034466;28;20011;-69
2021/07/07 09:31:58;;;;;;;;;;;23.40;63.40;;;;;;5029983;28;20030;-69
2021/07/07 09:34:24;;;;;;;;;;;23.40;63.30;;;;;;5018497;28;20557;-69
2021/07/07 09:36:54;;;;;;;;;;;23.30;63.40;;;;;;5034686;28;19913;-69
2021/07/07 09:39:19;;;;;;;;;;;23.40;63.40;;;;;;5040074;28;19913;-70
2021/07/07 09:41:45;;;;;;;;;;;23.30;63.40;;;;;;5035931;28;19917;-71
2021/07/07 09:44:10;;;;;;;;;;;23.30;63.40;;;;;;5029632;28;20439;-69
2021/07/07 09:46:36;;;;;;;;;;;23.30;63.50;;;;;;5046554;28;19913;-70
2021/07/07 09:49:02;;;;;;;;;;;23.30;63.50;;;;;;5034649;28;19941;-69
2021/07/07 09:51:27;;;;;;;;;;;23.30;63.50;;;;;;5039411;28;19920;-69
2021/07/07 09:53:53;;;;;;;;;;;23.30;63.60;;;;;;5029993;28;19925;-69
2021/07/07 09:56:18;;;;;;;;;;;23.30;63.70;;;;;;5024644;28;19921;-71
2021/07/07 09:58:44;;;;;;;;;;;23.30;63.70;;;;;;5024421;28;19917;-69
2021/07/07 10:01:09;;;;;;;;;;;23.30;63.80;;;;;;5014613;28;19971;-69
2021/07/07 10:03:34;;;;;;;;;;;23.30;63.80;;;;;;5031513;28;20022;-69
2021/07/07 10:06:02;;;;;;;;;;;23.30;63.80;;;;;;5012391;28;19917;-69
2021/07/07 10:08:27;;;;;;;;;;;23.30;64.40;;;;;;5030082;28;19928;-69
2021/07/07 10:10:53;;;;;;;;;;;23.30;63.80;;;;;;5035091;28;19913;-69
2021/07/07 10:13:18;;;;;;;;;;;23.30;63.90;;;;;;5019573;28;19966;-69
2021/07/07 10:15:44;;;;;;;;;;;23.30;63.90;;;;;;5018772;28;19920;-69
2021/07/07 10:18:09;;;;;;;;;;;23.30;63.90;;;;;;5022702;28;19956;-71
2021/07/07 10:20:35;;;;;;;;;;;23.30;63.90;;;;;;5026279;28;19920;-69
2021/07/07 10:23:00;;;;;;;;;;;23.30;63.90;;;;;;5037491;28;20633;-69
2021/07/07 10:25:29;;;;;;;;;;;23.30;63.80;;;;;;5029651;28;20443;-69
2021/07/07 10:27:55;;;;;;;;;;;23.40;63.80;;;;;;5018217;28;19928;-69
2021/07/07 10:30:21;;;;;;;;;;;23.40;63.80;;;;;;5032521;28;19913;-68
2021/07/07 10:33:03;;;;;;;;;;;23.40;63.80;;;;;;5043091;28;19913;-69
2021/07/07 10:35:29;;;;;;;;;;;23.30;64.00;;;;;;5008576;28;19913;-70
2021/07/07 10:37:55;;;;;;;;;;;23.30;64.00;;;;;;5036559;28;19917;-71
2021/07/07 10:40:21;;;;;;;;;;;23.30;64.10;;;;;;5005395;28;19920;-69
2021/07/07 10:42:47;;;;;;;;;;;23.30;64.10;;;;;;5045424;28;19917;-70
2021/07/07 10:45:28;;;;;;;;;;;23.30;64.20;;;;;;5038285;28;20350;-71
2021/07/07 10:47:54;;;;;;;;;;;23.30;64.20;;;;;;5040071;28;21407;-68
2021/07/07 10:50:32;;;;;;;;;;;23.30;64.20;;;;;;5034441;28;19914;-69
2021/07/07 10:52:57;;;;;;;;;;;23.30;64.20;;;;;;5027807;28;19920;-69
2021/07/07 10:55:24;;;;;;;;;;;23.30;64.30;;;;;;5037682;28;20291;-69
2021/07/07 10:57:50;;;;;;;;;;;23.30;64.30;;;;;;5021543;28;19967;-69
2021/07/07 11:00:30;;;;;;;;;;;23.30;64.30;;;;;;5041255;28;19967;-69
2021/07/07 11:03:14;;;;;;;;;;;23.30;64.30;;;;;;5033413;28;19920;-71
2021/07/07 11:05:40;;;;;;;;;;;23.30;64.20;;;;;;5036975;28;19913;-70
2021/07/07 11:08:06;;;;;;;;;;;23.30;64.20;;;;;;5040408;28;19961;-69
2021/07/07 11:10:31;;;;;;;;;;;23.30;64.30;;;;;;5012549;28;19948;-70
2021/07/07 11:12:57;;;;;;;;;;;23.30;64.40;;;;;;5021566;28;19924;-69
2021/07/07 11:15:23;;;;;;;;;;;23.30;64.40;;;;;;5039314;28;20390;-69
2021/07/07 11:17:49;;;;;;;;;;;23.30;64.50;;;;;;5020465;28;19947;-69
2021/07/07 11:20:15;;;;;;;;;;;23.30;64.50;;;;;;5027458;28;19967;-69
2021/07/07 11:22:41;;;;;;;;;;;23.30;64.40;;;;;;5043568;28;19956;-69
2021/07/07 11:25:07;;;;;;;;;;;23.30;64.40;;;;;;5030964;28;19913;-69
2021/07/07 11:27:33;;;;;;;;;;;23.30;64.30;;;;;;5034310;28;20571;-68
2021/07/07 11:29:59;;;;;;;;;;;23.30;64.30;;;;;;5017891;28;19917;-69
2021/07/07 11:32:29;;;;;;;;;;;23.30;64.40;;;;;;5030887;28;19913;-69
2021/07/07 11:34:55;;;;;;;;;;;23.30;64.30;;;;;;5021144;28;20343;-70
2021/07/07 11:37:21;;;;;;;;;;;23.40;64.30;;;;;;5037099;28;20349;-70
2021/07/07 11:40:00;;;;;;;;;;;23.30;64.30;;;;;;5018904;28;19968;-71
2021/07/07 11:42:25;;;;;;;;;;;23.30;64.20;;;;;;5034289;28;19921;-69
2021/07/07 11:44:51;;;;;;;;;;;23.40;64.00;;;;;;5020853;28;19966;-69
2021/07/07 11:47:23;;;;;;;;;;;23.40;64.00;;;;;;5034709;28;19927;-68
2021/07/07 11:50:08;;;;;;;;;;;23.30;64.10;;;;;;5029690;28;19913;-69
2021/07/07 11:52:33;;;;;;;;;;;23.40;64.30;;;;;;5022500;28;19952;-70
2021/07/07 11:55:00;;;;;;;;;;;23.30;64.20;;;;;;5038472;28;19957;-69
2021/07/07 11:57:26;;;;;;;;;;;23.30;64.40;;;;;;5038954;28;19948;-70
2021/07/07 11:59:51;;;;;;;;;;;23.40;64.30;;;;;;5033489;28;20561;-70
2021/07/07 12:02:17;;;;;;;;;;;23.40;64.30;;;;;;5044050;28;19923;-69
2021/07/07 12:04:42;;;;;;;;;;;23.40;64.60;;;;;;5019193;28;20369;-70
2021/07/07 12:07:08;;;;;;;;;;;23.40;64.50;;;;;;5009281;28;19936;-69
2021/07/07 12:09:33;;;;;;;;;;;23.30;64.30;;;;;;5044411;28;19921;-69
2021/07/07 12:11:59;;;;;;;;;;;23.30;64.30;;;;;;5045215;28;19990;-71
2021/07/07 12:14:28;;;;;;;;;;;23.40;64.40;;;;;;5044892;28;20406;-70
2021/07/07 12:16:53;;;;;;;;;;;23.40;64.30;;;;;;5045598;28;19917;-69
2021/07/07 12:19:19;;;;;;;;;;;23.30;64.20;;;;;;5037236;28;19919;-70
2021/07/07 12:21:45;;;;;;;;;;;23.40;64.30;;;;;;5036839;28;19955;-70
2021/07/07 12:24:12;;;;;;;;;;;23.30;64.40;;;;;;5045604;28;19936;-72
2021/07/07 12:26:38;;;;;;;;;;;23.40;64.40;;;;;;5033817;28;19920;-68
2021/07/07 12:29:03;;;;;;;;;;;23.30;64.30;;;;;;5031692;28;19943;-67
2021/07/07 12:31:29;;;;;;;;;;;23.40;64.50;;;;;;5033636;28;19917;-69
2021/07/07 12:33:55;;;;;;;;;;;23.40;64.40;;;;;;5029632;28;19940;-73
2021/07/07 12:36:26;;;;;;;;;;;23.40;64.50;;;;;;5012453;28;20044;-70
2021/07/07 12:38:51;;;;;;;;;;;23.40;64.60;;;;;;5028890;28;20405;-69
2021/07/07 12:41:17;;;;;;;;;;;23.40;64.50;;;;;;5040882;28;19963;-71
2021/07/07 12:44:08;;;;;;;;;;;23.30;64.40;;;;;;5035887;28;20000;-68
2021/07/07 12:46:34;;;;;;;;;;;23.30;64.40;;;;;;5041025;28;19920;-70
2021/07/07 12:48:59;;;;;;;;;;;23.40;64.40;;;;;;5033953;28;19917;-69
2021/07/07 12:51:25;;;;;;;;;;;23.40;64.40;;;;;;5031352;28;20384;-68
2021/07/07 12:53:51;;;;;;;;;;;23.40;64.40;;;;;;5019826;28;19920;-67
2021/07/07 12:56:17;;;;;;;;;;;23.40;64.40;;;;;;5013706;28;19917;-70
2021/07/07 12:58:42;;;;;;;;;;;23.30;64.40;;;;;;5028708;28;19913;-68
2021/07/07 13:01:28;;;;;;;;;;;23.40;64.40;;;;;;5025230;28;19968;-70
2021/07/07 13:03:54;;;;;;;;;;;23.30;64.30;;;;;;5029238;28;19998;-69
2021/07/07 13:06:23;;;;;;;;;;;23.30;64.40;;;;;;5029432;28;19964;-68
2021/07/07 13:08:49;;;;;;;;;;;23.40;64.40;;;;;;5042117;28;19920;-69
2021/07/07 13:11:17;;;;;;;;;;;23.30;64.50;;;;;;5011884;28;19920;-69
2021/07/07 13:13:43;;;;;;;;;;;23.30;64.50;;;;;;5049122;22;19959;-64
2021/07/07 13:16:11;;;;;;;;;;;23.30;64.60;;;;;;5007148;28;19922;-64
2021/07/07 13:18:52;;;;;;;;;;;23.30;64.70;;;;;;4981838;28;20151;-65
2021/07/07 13:21:27;;;;;;;;;;;23.30;64.70;;;;;;4998326;28;19975;-65
2021/07/07 13:23:52;;;;;;;;;;;23.30;64.70;;;;;;4981667;28;19964;-64
2021/07/07 13:26:23;;;;;;;;;;;23.30;64.70;;;;;;4997234;28;20031;-64
2021/07/07 13:28:50;;;;;;;;;;;23.30;64.70;;;;;;5000214;28;19924;-64
2021/07/07 13:31:22;;;;;;;;;;;23.30;64.80;;;;;;4983616;28;19920;-68
2021/07/07 13:33:50;;;;;;;;;;;23.30;64.80;;;;;;4984128;28;19920;-64
2021/07/07 13:36:16;;;;;;;;;;;23.30;64.90;;;;;;5001070;28;19945;-67
2021/07/07 13:38:41;;;;;;;;;;;23.30;64.90;;;;;;5000479;28;20352;-64
2021/07/07 13:41:06;;;;;;;;;;;23.30;64.70;;;;;;4982346;28;19914;-64
2021/07/07 13:43:34;;;;;;;;;;;23.30;64.40;;;;;;5000022;28;19975;-64
2021/07/07 13:46:00;;;;;;;;;;;23.30;64.70;;;;;;4982966;28;19914;-64
2021/07/07 13:48:26;;;;;;;;;;;23.30;64.60;;;;;;4983112;28;19964;-64
2021/07/07 13:50:52;;;;;;;;;;;23.30;64.60;;;;;;4978889;28;19922;-64
2021/07/07 13:53:18;;;;;;;;;;;23.30;64.60;;;;;;5002430;28;19913;-64
2021/07/07 13:55:43;;;;;;;;;;;23.30;64.30;;;;;;5000519;28;19920;-64
2021/07/07 13:58:09;;;;;;;;;;;23.30;64.40;;;;;;4983426;28;20359;-65
2021/07/07 14:00:35;;;;;;;;;;;23.30;64.30;;;;;;4999357;28;19918;-64
2021/07/07 14:03:00;;;;;;;;;;;23.40;64.30;;;;;;4983224;28;20355;-62
2021/07/07 14:05:26;;;;;;;;;;;23.40;64.00;;;;;;5000301;28;19924;-64
2021/07/07 14:07:51;;;;;;;;;;;23.30;62.80;;;;;;5001677;28;20622;-64
2021/07/07 14:10:17;;;;;;;;;;;23.30;63.90;;;;;;5000061;28;20562;-65